sensor_id;sensor_type;location;lat;lon;timestamp;pressure;altitude;pressure_sealevel;temperature;humidity
31911;BME280;18457;52.432;16.914;2023-02-13T00:00:00;102477.98;;;6.88;94.84
31911;BME280;18457;52.432;16.914;2023-02-13T00:02:54;102479.02;;;6.86;94.75
31911;BME280;18457;52.432;16.914;2023-02-13T00:05:27;102474.35;;;6.87;94.55
31911;BME280;18457;52.432;16.914;2023-02-13T00:07:58;102471.67;;;6.87;94.42
31911;BME280;18457;52.432;16.914;2023-02-13T00:10:30;102467.83;;;6.91;94.20
31911;BME280;18457;52.432;16.914;2023-02-13T00:13:02;102472.17;;;6.86;94.28
31911;BME280;18457;52.432;16.914;2023-02-13T00:15:34;102464.70;;;6.89;94.32
31911;BME280;18457;52.432;16.914;2023-02-13T00:18:06;102464.61;;;6.85;93.89
31911;BME280;18457;52.432;16.914;2023-02-13T00:20:38;102458.92;;;6.87;93.75
31911;BME280;18457;52.432;16.914;2023-02-13T00:23:10;102462.79;;;6.91;93.59
31911;BME280;18457;52.432;16.914;2023-02-13T00:25:41;102459.98;;;6.94;93.29
31911;BME280;18457;52.432;16.914;2023-02-13T00:28:13;102460.93;;;6.96;92.92
31911;BME280;18457;52.432;16.914;2023-02-13T00:30:45;102457.98;;;7.01;92.73
31911;BME280;18457;52.432;16.914;2023-02-13T00:33:17;102455.47;;;7.00;92.24
31911;BME280;18457;52.432;16.914;2023-02-13T00:35:50;102458.67;;;7.00;92.15
31911;BME280;18457;52.432;16.914;2023-02-13T00:38:21;102462.30;;;7.01;92.10
31911;BME280;18457;52.432;16.914;2023-02-13T00:40:53;102463.16;;;7.07;91.61
31911;BME280;18457;52.432;16.914;2023-02-13T00:43:25;102460.29;;;6.99;91.24
31911;BME280;18457;52.432;16.914;2023-02-13T00:45:59;102455.73;;;6.97;91.24
31911;BME280;18457;52.432;16.914;2023-02-13T00:48:32;102453.17;;;7.03;91.27
31911;BME280;18457;52.432;16.914;2023-02-13T00:51:05;102449.98;;;7.12;90.93
31911;BME280;18457;52.432;16.914;2023-02-13T00:53:38;102452.30;;;7.11;90.74
31911;BME280;18457;52.432;16.914;2023-02-13T00:56:10;102459.03;;;6.99;90.94
31911;BME280;18457;52.432;16.914;2023-02-13T00:58:42;102456.94;;;7.02;91.99
31911;BME280;18457;52.432;16.914;2023-02-13T01:01:14;102460.73;;;7.03;93.22
31911;BME280;18457;52.432;16.914;2023-02-13T01:03:46;102458.10;;;7.06;93.79
31911;BME280;18457;52.432;16.914;2023-02-13T01:06:18;102449.38;;;7.01;94.64
31911;BME280;18457;52.432;16.914;2023-02-13T01:08:50;102455.14;;;6.94;95.28
31911;BME280;18457;52.432;16.914;2023-02-13T01:11:22;102454.02;;;6.92;96.13
31911;BME280;18457;52.432;16.914;2023-02-13T01:13:54;102452.55;;;6.99;96.09
31911;BME280;18457;52.432;16.914;2023-02-13T01:16:26;102454.95;;;6.87;97.72
31911;BME280;18457;52.432;16.914;2023-02-13T01:18:58;102450.70;;;6.89;98.76
31911;BME280;18457;52.432;16.914;2023-02-13T01:21:34;102449.91;;;6.87;99.53
31911;BME280;18457;52.432;16.914;2023-02-13T01:24:06;102443.04;;;6.92;99.97
31911;BME280;18457;52.432;16.914;2023-02-13T01:26:38;102441.70;;;6.96;99.91
31911;BME280;18457;52.432;16.914;2023-02-13T01:29:12;102448.63;;;6.86;100.00
31911;BME280;18457;52.432;16.914;2023-02-13T01:31:44;102447.41;;;6.80;100.00
31911;BME280;18457;52.432;16.914;2023-02-13T01:34:16;102443.80;;;6.72;100.00
31911;BME280;18457;52.432;16.914;2023-02-13T01:36:48;102435.98;;;6.75;100.00
31911;BME280;18457;52.432;16.914;2023-02-13T01:39:20;102442.31;;;6.70;100.00
31911;BME280;18457;52.432;16.914;2023-02-13T01:41:52;102437.90;;;6.80;100.00
31911;BME280;18457;52.432;16.914;2023-02-13T01:44:50;102435.75;;;6.73;100.00
31911;BME280;18457;52.432;16.914;2023-02-13T01:47:26;102438.06;;;6.72;100.00
31911;BME280;18457;52.432;16.914;2023-02-13T01:50:07;102440.45;;;6.75;100.00
31911;BME280;18457;52.432;16.914;2023-02-13T01:52:44;102436.20;;;6.77;100.00
31911;BME280;18457;52.432;16.914;2023-02-13T01:55:17;102430.65;;;6.77;100.00
31911;BME280;18457;52.432;16.914;2023-02-13T01:57:49;102429.61;;;6.72;100.00
31911;BME280;18457;52.432;16.914;2023-02-13T02:00:22;102428.04;;;6.73;100.00
31911;BME280;18457;52.432;16.914;2023-02-13T02:02:59;102426.27;;;6.74;100.00
31911;BME280;18457;52.432;16.914;2023-02-13T02:05:35;102422.35;;;6.68;100.00
31911;BME280;18457;52.432;16.914;2023-02-13T02:08:09;102424.73;;;6.71;100.00
31911;BME280;18457;52.432;16.914;2023-02-13T02:10:43;102423.05;;;6.75;100.00
31911;BME280;18457;52.432;16.914;2023-02-13T02:13:17;102424.08;;;6.73;100.00
31911;BME280;18457;52.432;16.914;2023-02-13T02:15:50;102424.77;;;6.72;100.00
31911;BME280;18457;52.432;16.914;2023-02-13T02:18:23;102422.84;;;6.74;100.00
31911;BME280;18457;52.432;16.914;2023-02-13T02:21:14;102420.58;;;6.77;100.00
31911;BME280;18457;52.432;16.914;2023-02-13T02:27:18;102416.35;;;6.73;100.00
31911;BME280;18457;52.432;16.914;2023-02-13T02:30:08;102408.20;;;6.77;100.00
31911;BME280;18457;52.432;16.914;2023-02-13T02:32:50;102404.02;;;6.68;100.00
31911;BME280;18457;52.432;16.914;2023-02-13T02:35:32;102394.72;;;6.69;100.00
31911;BME280;18457;52.432;16.914;2023-02-13T02:38:20;102398.63;;;6.68;100.00
31911;BME280;18457;52.432;16.914;2023-02-13T02:41:04;102400.73;;;6.66;100.00
31911;BME280;18457;52.432;16.914;2023-02-13T02:43:54;102397.65;;;6.72;100.00
31911;BME280;18457;52.432;16.914;2023-02-13T02:46:35;102400.62;;;6.76;100.00
31911;BME280;18457;52.432;16.914;2023-02-13T02:49:13;102404.53;;;6.75;100.00
31911;BME280;18457;52.432;16.914;2023-02-13T02:52:07;102404.19;;;6.67;100.00
31911;BME280;18457;52.432;16.914;2023-02-13T02:54:47;102398.30;;;6.61;100.00
31911;BME280;18457;52.432;16.914;2023-02-13T02:57:49;102396.79;;;6.59;100.00
31911;BME280;18457;52.432;16.914;2023-02-13T03:00:43;102398.41;;;6.52;100.00
31911;BME280;18457;52.432;16.914;2023-02-13T03:03:34;102398.98;;;6.46;100.00
31911;BME280;18457;52.432;16.914;2023-02-13T03:06:28;102398.73;;;6.50;100.00
31911;BME280;18457;52.432;16.914;2023-02-13T03:09:05;102403.09;;;6.52;100.00
31911;BME280;18457;52.432;16.914;2023-02-13T03:11:59;102399.86;;;6.59;100.00
31911;BME280;18457;52.432;16.914;2023-02-13T03:14:48;102399.23;;;6.63;100.00
31911;BME280;18457;52.432;16.914;2023-02-13T03:17:20;102395.50;;;6.65;100.00
31911;BME280;18457;52.432;16.914;2023-02-13T03:20:16;102398.47;;;6.61;100.00
31911;BME280;18457;52.432;16.914;2023-02-13T03:23:13;102395.53;;;6.58;100.00
31911;BME280;18457;52.432;16.914;2023-02-13T03:26:02;102394.20;;;6.56;100.00
31911;BME280;18457;52.432;16.914;2023-02-13T03:28:44;102393.34;;;6.57;100.00
31911;BME280;18457;52.432;16.914;2023-02-13T03:31:44;102390.51;;;6.52;100.00
31911;BME280;18457;52.432;16.914;2023-02-13T03:34:22;102385.11;;;6.51;100.00
31911;BME280;18457;52.432;16.914;2023-02-13T03:37:17;102387.36;;;6.48;100.00
31911;BME280;18457;52.432;16.914;2023-02-13T03:40:11;102390.23;;;6.55;100.00
31911;BME280;18457;52.432;16.914;2023-02-13T03:42:46;102388.21;;;6.60;100.00
31911;BME280;18457;52.432;16.914;2023-02-13T03:45:22;102386.77;;;6.60;100.00
31911;BME280;18457;52.432;16.914;2023-02-13T03:48:16;102389.05;;;6.58;100.00
31911;BME280;18457;52.432;16.914;2023-02-13T03:51:05;102384.88;;;6.56;100.00
31911;BME280;18457;52.432;16.914;2023-02-13T03:53:39;102380.69;;;6.53;100.00
31911;BME280;18457;52.432;16.914;2023-02-13T03:56:14;102386.36;;;6.51;100.00
31911;BME280;18457;52.432;16.914;2023-02-13T03:59:08;102380.26;;;6.51;100.00
31911;BME280;18457;52.432;16.914;2023-02-13T04:01:55;102383.44;;;6.49;100.00
31911;BME280;18457;52.432;16.914;2023-02-13T04:04:37;102385.45;;;6.51;100.00
31911;BME280;18457;52.432;16.914;2023-02-13T04:07:12;102381.59;;;6.46;100.00
31911;BME280;18457;52.432;16.914;2023-02-13T04:10:00;102385.01;;;6.47;100.00
31911;BME280;18457;52.432;16.914;2023-02-13T04:12:39;102386.55;;;6.51;100.00
31911;BME280;18457;52.432;16.914;2023-02-13T04:15:17;102382.79;;;6.52;100.00
31911;BME280;18457;52.432;16.914;2023-02-13T04:17:54;102384.90;;;6.50;100.00
31911;BME280;18457;52.432;16.914;2023-02-13T04:20:29;102387.69;;;6.54;100.00
31911;BME280;18457;52.432;16.914;2023-02-13T04:23:07;102391.88;;;6.56;100.00
31911;BME280;18457;52.432;16.914;2023-02-13T04:25:41;102393.13;;;6.63;100.00
31911;BME280;18457;52.432;16.914;2023-02-13T04:28:14;102394.55;;;6.62;100.00
31911;BME280;18457;52.432;16.914;2023-02-13T04:30:46;102394.20;;;6.62;100.00
31911;BME280;18457;52.432;16.914;2023-02-13T04:33:19;102399.09;;;6.64;100.00
31911;BME280;18457;52.432;16.914;2023-02-13T04:35:51;102406.50;;;6.66;100.00
31911;BME280;18457;52.432;16.914;2023-02-13T04:38:22;102409.61;;;6.69;100.00
31911;BME280;18457;52.432;16.914;2023-02-13T04:40:54;102403.14;;;6.69;100.00
31911;BME280;18457;52.432;16.914;2023-02-13T04:43:27;102401.30;;;6.74;100.00
31911;BME280;18457;52.432;16.914;2023-02-13T04:45:59;102398.98;;;6.75;100.00
31911;BME280;18457;52.432;16.914;2023-02-13T04:48:31;102399.02;;;6.77;100.00
31911;BME280;18457;52.432;16.914;2023-02-13T04:51:04;102398.19;;;6.80;100.00
31911;BME280;18457;52.432;16.914;2023-02-13T04:53:35;102399.11;;;6.73;100.00
31911;BME280;18457;52.432;16.914;2023-02-13T04:56:07;102398.71;;;6.79;100.00
31911;BME280;18457;52.432;16.914;2023-02-13T04:58:39;102400.69;;;6.79;100.00
31911;BME280;18457;52.432;16.914;2023-02-13T05:01:14;102396.38;;;6.79;100.00
31911;BME280;18457;52.432;16.914;2023-02-13T05:03:46;102401.60;;;6.79;100.00
31911;BME280;18457;52.432;16.914;2023-02-13T05:06:18;102401.13;;;6.82;100.00
31911;BME280;18457;52.432;16.914;2023-02-13T05:08:50;102401.63;;;6.80;100.00
31911;BME280;18457;52.432;16.914;2023-02-13T05:11:21;102402.61;;;6.84;100.00
31911;BME280;18457;52.432;16.914;2023-02-13T05:13:53;102402.96;;;6.84;100.00
31911;BME280;18457;52.432;16.914;2023-02-13T05:16:25;102404.55;;;6.83;100.00
31911;BME280;18457;52.432;16.914;2023-02-13T05:18:57;102407.58;;;6.82;100.00
31911;BME280;18457;52.432;16.914;2023-02-13T05:21:29;102403.81;;;6.82;100.00
31911;BME280;18457;52.432;16.914;2023-02-13T05:24:18;102408.16;;;6.83;100.00
31911;BME280;18457;52.432;16.914;2023-02-13T05:26:50;102414.34;;;6.79;100.00
31911;BME280;18457;52.432;16.914;2023-02-13T05:29:22;102418.77;;;6.84;100.00
31911;BME280;18457;52.432;16.914;2023-02-13T05:31:55;102414.29;;;6.84;100.00
31911;BME280;18457;52.432;16.914;2023-02-13T05:34:28;102413.77;;;6.84;100.00
31911;BME280;18457;52.432;16.914;2023-02-13T05:37:00;102418.08;;;6.85;100.00
31911;BME280;18457;52.432;16.914;2023-02-13T05:39:31;102416.34;;;6.80;100.00
31911;BME280;18457;52.432;16.914;2023-02-13T05:42:03;102417.30;;;6.83;100.00
31911;BME280;18457;52.432;16.914;2023-02-13T05:44:35;102415.20;;;6.84;100.00
31911;BME280;18457;52.432;16.914;2023-02-13T05:47:08;102415.86;;;6.83;100.00
31911;BME280;18457;52.432;16.914;2023-02-13T05:49:39;102419.67;;;6.84;100.00
31911;BME280;18457;52.432;16.914;2023-02-13T05:52:11;102419.08;;;6.81;100.00
31911;BME280;18457;52.432;16.914;2023-02-13T05:54:43;102422.42;;;6.79;100.00
31911;BME280;18457;52.432;16.914;2023-02-13T05:57:15;102430.14;;;6.78;100.00
31911;BME280;18457;52.432;16.914;2023-02-13T05:59:46;102434.16;;;6.81;100.00
31911;BME280;18457;52.432;16.914;2023-02-13T06:02:18;102434.56;;;6.83;100.00
31911;BME280;18457;52.432;16.914;2023-02-13T06:04:50;102430.36;;;6.80;100.00
31911;BME280;18457;52.432;16.914;2023-02-13T06:07:22;102434.16;;;6.81;100.00
31911;BME280;18457;52.432;16.914;2023-02-13T06:09:53;102425.92;;;6.83;100.00
31911;BME280;18457;52.432;16.914;2023-02-13T06:12:28;102433.25;;;6.88;100.00
31911;BME280;18457;52.432;16.914;2023-02-13T06:14:59;102433.00;;;6.85;100.00
31911;BME280;18457;52.432;16.914;2023-02-13T06:17:31;102431.06;;;6.87;100.00
31911;BME280;18457;52.432;16.914;2023-02-13T06:20:04;102434.48;;;6.87;100.00
31911;BME280;18457;52.432;16.914;2023-02-13T06:22:36;102439.73;;;6.82;100.00
31911;BME280;18457;52.432;16.914;2023-02-13T06:25:08;102439.51;;;6.87;100.00
31911;BME280;18457;52.432;16.914;2023-02-13T06:27:40;102443.30;;;6.88;100.00
31911;BME280;18457;52.432;16.914;2023-02-13T06:30:13;102447.44;;;6.88;100.00
31911;BME280;18457;52.432;16.914;2023-02-13T06:32:46;102455.46;;;6.93;100.00
31911;BME280;18457;52.432;16.914;2023-02-13T06:35:17;102453.60;;;6.82;100.00
31911;BME280;18457;52.432;16.914;2023-02-13T06:37:49;102450.27;;;6.78;100.00
31911;BME280;18457;52.432;16.914;2023-02-13T06:40:21;102451.40;;;6.88;100.00
31911;BME280;18457;52.432;16.914;2023-02-13T06:42:52;102451.08;;;6.90;100.00
31911;BME280;18457;52.432;16.914;2023-02-13T06:45:24;102453.66;;;6.85;100.00
31911;BME280;18457;52.432;16.914;2023-02-13T06:47:56;102458.19;;;6.79;100.00
31911;BME280;18457;52.432;16.914;2023-02-13T06:50:28;102463.34;;;6.77;100.00
31911;BME280;18457;52.432;16.914;2023-02-13T06:53:00;102462.69;;;6.73;100.00
31911;BME280;18457;52.432;16.914;2023-02-13T06:55:32;102463.15;;;6.69;100.00
31911;BME280;18457;52.432;16.914;2023-02-13T06:58:04;102465.86;;;6.70;100.00
31911;BME280;18457;52.432;16.914;2023-02-13T07:00:36;102469.27;;;6.70;100.00
31911;BME280;18457;52.432;16.914;2023-02-13T07:03:09;102467.57;;;6.74;100.00
31911;BME280;18457;52.432;16.914;2023-02-13T07:05:39;102472.40;;;6.80;100.00
31911;BME280;18457;52.432;16.914;2023-02-13T07:08:12;102471.37;;;6.82;100.00
31911;BME280;18457;52.432;16.914;2023-02-13T07:10:44;102474.14;;;6.85;100.00
31911;BME280;18457;52.432;16.914;2023-02-13T07:13:16;102475.13;;;6.82;100.00
31911;BME280;18457;52.432;16.914;2023-02-13T07:15:48;102476.62;;;6.84;99.90
31911;BME280;18457;52.432;16.914;2023-02-13T07:18:19;102477.69;;;6.83;99.55
31911;BME280;18457;52.432;16.914;2023-02-13T07:20:51;102477.69;;;6.83;99.29
31911;BME280;18457;52.432;16.914;2023-02-13T07:23:23;102475.96;;;6.86;98.24
31911;BME280;18457;52.432;16.914;2023-02-13T07:25:55;102474.80;;;6.75;98.03
31911;BME280;18457;52.432;16.914;2023-02-13T07:28:29;102487.64;;;6.79;97.66
31911;BME280;18457;52.432;16.914;2023-02-13T07:31:05;102485.83;;;6.78;97.32
31911;BME280;18457;52.432;16.914;2023-02-13T07:33:38;102487.79;;;6.77;97.52
31911;BME280;18457;52.432;16.914;2023-02-13T07:36:10;102490.65;;;6.77;97.43
31911;BME280;18457;52.432;16.914;2023-02-13T07:38:42;102483.72;;;6.73;97.73
31911;BME280;18457;52.432;16.914;2023-02-13T07:41:13;102488.20;;;6.80;97.76
31911;BME280;18457;52.432;16.914;2023-02-13T07:43:45;102493.89;;;6.85;97.58
31911;BME280;18457;52.432;16.914;2023-02-13T07:46:17;102492.98;;;6.84;97.48
31911;BME280;18457;52.432;16.914;2023-02-13T07:48:51;102490.64;;;6.84;97.81
31911;BME280;18457;52.432;16.914;2023-02-13T07:51:23;102487.95;;;6.85;97.49
31911;BME280;18457;52.432;16.914;2023-02-13T07:53:55;102483.05;;;6.82;97.22
31911;BME280;18457;52.432;16.914;2023-02-13T07:56:28;102481.05;;;6.82;97.01
31911;BME280;18457;52.432;16.914;2023-02-13T07:59:00;102482.89;;;6.83;97.00
31911;BME280;18457;52.432;16.914;2023-02-13T08:01:31;102484.58;;;6.86;96.54
31911;BME280;18457;52.432;16.914;2023-02-13T08:04:03;102486.94;;;6.73;95.97
31911;BME280;18457;52.432;16.914;2023-02-13T08:06:35;102483.15;;;6.73;95.57
31911;BME280;18457;52.432;16.914;2023-02-13T08:09:17;102486.22;;;6.72;94.75
31911;BME280;18457;52.432;16.914;2023-02-13T08:12:21;102485.79;;;6.77;94.16
31911;BME280;18457;52.432;16.914;2023-02-13T08:14:53;102484.09;;;6.81;93.47
31911;BME280;18457;52.432;16.914;2023-02-13T08:17:25;102488.27;;;6.83;93.12
31911;BME280;18457;52.432;16.914;2023-02-13T08:19:57;102487.80;;;6.79;92.78
31911;BME280;18457;52.432;16.914;2023-02-13T08:22:29;102487.89;;;6.75;92.32
31911;BME280;18457;52.432;16.914;2023-02-13T08:25:01;102490.23;;;6.75;92.28
31911;BME280;18457;52.432;16.914;2023-02-13T08:27:33;102484.05;;;6.73;92.03
31911;BME280;18457;52.432;16.914;2023-02-13T08:30:07;102485.96;;;6.77;91.32
31911;BME280;18457;52.432;16.914;2023-02-13T08:32:39;102478.96;;;6.77;91.01
31911;BME280;18457;52.432;16.914;2023-02-13T08:35:24;102487.39;;;6.83;90.23
31911;BME280;18457;52.432;16.914;2023-02-13T08:38:02;102484.55;;;6.85;90.22
31911;BME280;18457;52.432;16.914;2023-02-13T08:40:34;102484.41;;;6.86;89.86
31911;BME280;18457;52.432;16.914;2023-02-13T08:43:06;102480.38;;;6.83;89.83
31911;BME280;18457;52.432;16.914;2023-02-13T08:45:38;102481.51;;;6.86;89.81
31911;BME280;18457;52.432;16.914;2023-02-13T08:48:10;102484.73;;;6.84;89.55
31911;BME280;18457;52.432;16.914;2023-02-13T08:50:42;102483.15;;;6.87;89.42
31911;BME280;18457;52.432;16.914;2023-02-13T08:53:14;102483.98;;;6.84;89.02
31911;BME280;18457;52.432;16.914;2023-02-13T08:55:53;102479.94;;;6.80;89.31
31911;BME280;18457;52.432;16.914;2023-02-13T08:58:25;102482.66;;;6.81;89.05
31911;BME280;18457;52.432;16.914;2023-02-13T09:00:57;102488.11;;;6.83;88.84
31911;BME280;18457;52.432;16.914;2023-02-13T09:03:29;102484.17;;;6.84;88.31
31911;BME280;18457;52.432;16.914;2023-02-13T09:06:01;102481.52;;;6.86;87.96
31911;BME280;18457;52.432;16.914;2023-02-13T09:08:34;102476.77;;;6.90;87.69
31911;BME280;18457;52.432;16.914;2023-02-13T09:11:06;102479.49;;;6.91;87.54
31911;BME280;18457;52.432;16.914;2023-02-13T09:13:38;102473.99;;;6.94;87.66
31911;BME280;18457;52.432;16.914;2023-02-13T09:16:10;102468.71;;;6.98;87.27
31911;BME280;18457;52.432;16.914;2023-02-13T09:18:43;102473.86;;;6.96;87.09
31911;BME280;18457;52.432;16.914;2023-02-13T09:21:18;102476.97;;;6.98;86.92
31911;BME280;18457;52.432;16.914;2023-02-13T09:23:50;102481.16;;;6.93;87.13
31911;BME280;18457;52.432;16.914;2023-02-13T09:26:22;102476.33;;;6.93;87.24
31911;BME280;18457;52.432;16.914;2023-02-13T09:28:54;102477.64;;;6.96;87.22
31911;BME280;18457;52.432;16.914;2023-02-13T09:31:26;102475.13;;;6.96;87.17
31911;BME280;18457;52.432;16.914;2023-02-13T09:33:59;102472.67;;;6.99;86.95
31911;BME280;18457;52.432;16.914;2023-02-13T09:36:31;102471.42;;;6.99;86.97
31911;BME280;18457;52.432;16.914;2023-02-13T09:39:04;102473.23;;;6.99;87.26
31911;BME280;18457;52.432;16.914;2023-02-13T09:41:37;102471.60;;;6.99;87.62
31911;BME280;18457;52.432;16.914;2023-02-13T09:44:15;102477.05;;;7.01;87.38
31911;BME280;18457;52.432;16.914;2023-02-13T09:47:03;102474.23;;;7.03;87.38
31911;BME280;18457;52.432;16.914;2023-02-13T09:49:41;102475.63;;;7.02;87.92
31911;BME280;18457;52.432;16.914;2023-02-13T09:52:14;102476.99;;;6.99;88.25
31911;BME280;18457;52.432;16.914;2023-02-13T09:54:46;102483.89;;;7.02;88.25
31911;BME280;18457;52.432;16.914;2023-02-13T09:57:26;102478.08;;;7.00;88.10
31911;BME280;18457;52.432;16.914;2023-02-13T10:00:04;102481.92;;;6.95;88.36
31911;BME280;18457;52.432;16.914;2023-02-13T10:02:56;102482.25;;;6.94;88.90
31911;BME280;18457;52.432;16.914;2023-02-13T10:05:47;102476.02;;;6.96;88.51
31911;BME280;18457;52.432;16.914;2023-02-13T10:08:38;102477.55;;;7.00;88.73
31911;BME280;18457;52.432;16.914;2023-02-13T10:11:26;102484.61;;;7.02;88.69
31911;BME280;18457;52.432;16.914;2023-02-13T10:14:08;102480.24;;;7.07;88.35
31911;BME280;18457;52.432;16.914;2023-02-13T10:16:44;102478.84;;;7.01;87.91
31911;BME280;18457;52.432;16.914;2023-02-13T10:19:26;102481.94;;;7.03;87.96
31911;BME280;18457;52.432;16.914;2023-02-13T10:22:06;102482.56;;;7.06;87.67
31911;BME280;18457;52.432;16.914;2023-02-13T10:24:45;102485.60;;;7.06;87.83
31911;BME280;18457;52.432;16.914;2023-02-13T10:27:22;102487.39;;;7.05;87.58
31911;BME280;18457;52.432;16.914;2023-02-13T10:29:57;102479.30;;;7.05;87.56
31911;BME280;18457;52.432;16.914;2023-02-13T10:32:44;102479.29;;;7.05;87.73
31911;BME280;18457;52.432;16.914;2023-02-13T10:35:21;102482.61;;;7.08;87.55
31911;BME280;18457;52.432;16.914;2023-02-13T10:37:56;102477.13;;;7.12;87.35
31911;BME280;18457;52.432;16.914;2023-02-13T10:40:34;102478.63;;;7.15;87.20
31911;BME280;18457;52.432;16.914;2023-02-13T10:43:10;102469.36;;;7.18;87.39
31911;BME280;18457;52.432;16.914;2023-02-13T10:46:02;102470.32;;;7.14;86.45
31911;BME280;18457;52.432;16.914;2023-02-13T10:48:52;102468.41;;;7.16;86.55
31911;BME280;18457;52.432;16.914;2023-02-13T10:51:33;102468.90;;;7.22;86.05
31911;BME280;18457;52.432;16.914;2023-02-13T10:54:20;102467.27;;;7.21;85.38
31911;BME280;18457;52.432;16.914;2023-02-13T10:57:01;102461.14;;;7.12;85.13
31911;BME280;18457;52.432;16.914;2023-02-13T10:59:45;102461.42;;;7.10;85.37
31911;BME280;18457;52.432;16.914;2023-02-13T11:02:24;102458.17;;;7.01;84.91
31911;BME280;18457;52.432;16.914;2023-02-13T11:05:00;102457.16;;;7.12;84.93
31911;BME280;18457;52.432;16.914;2023-02-13T11:07:34;102459.02;;;7.14;84.38
31911;BME280;18457;52.432;16.914;2023-02-13T11:10:16;102460.00;;;7.18;84.31
31911;BME280;18457;52.432;16.914;2023-02-13T11:12:49;102457.38;;;7.14;83.75
31911;BME280;18457;52.432;16.914;2023-02-13T11:15:24;102458.34;;;7.16;83.53
31911;BME280;18457;52.432;16.914;2023-02-13T11:17:58;102456.36;;;7.15;83.32
31911;BME280;18457;52.432;16.914;2023-02-13T11:20:35;102462.89;;;7.18;83.34
31911;BME280;18457;52.432;16.914;2023-02-13T11:23:23;102457.90;;;7.20;82.97
31911;BME280;18457;52.432;16.914;2023-02-13T11:25:58;102462.84;;;7.24;82.75
31911;BME280;18457;52.432;16.914;2023-02-13T11:28:33;102461.34;;;7.22;82.76
31911;BME280;18457;52.432;16.914;2023-02-13T11:31:12;102458.90;;;7.17;83.09
31911;BME280;18457;52.432;16.914;2023-02-13T11:33:45;102460.95;;;7.21;83.05
31911;BME280;18457;52.432;16.914;2023-02-13T11:36:24;102454.84;;;7.20;83.32
31911;BME280;18457;52.432;16.914;2023-02-13T11:39:02;102455.48;;;7.17;83.24
31911;BME280;18457;52.432;16.914;2023-02-13T11:41:41;102459.86;;;7.12;83.38
31911;BME280;18457;52.432;16.914;2023-02-13T11:44:23;102451.52;;;7.16;83.53
31911;BME280;18457;52.432;16.914;2023-02-13T11:46:57;102452.51;;;7.20;83.45
31911;BME280;18457;52.432;16.914;2023-02-13T11:49:31;102449.84;;;7.21;83.40
31911;BME280;18457;52.432;16.914;2023-02-13T11:52:05;102451.03;;;7.18;83.34
31911;BME280;18457;52.432;16.914;2023-02-13T11:54:40;102444.04;;;7.19;83.47
31911;BME280;18457;52.432;16.914;2023-02-13T11:57:21;102434.98;;;7.16;83.32
31911;BME280;18457;52.432;16.914;2023-02-13T11:59:55;102431.59;;;7.17;83.60
31911;BME280;18457;52.432;16.914;2023-02-13T12:02:28;102437.67;;;7.16;83.43
31911;BME280;18457;52.432;16.914;2023-02-13T12:07:59;102433.17;;;7.24;83.43
31911;BME280;18457;52.432;16.914;2023-02-13T12:10:33;102437.72;;;7.18;83.37
31911;BME280;18457;52.432;16.914;2023-02-13T12:13:14;102447.30;;;7.21;83.24
31911;BME280;18457;52.432;16.914;2023-02-13T12:15:56;102443.89;;;7.21;83.31
31911;BME280;18457;52.432;16.914;2023-02-13T12:18:35;102439.71;;;7.27;83.17
31911;BME280;18457;52.432;16.914;2023-02-13T12:21:17;102444.26;;;7.21;83.30
31911;BME280;18457;52.432;16.914;2023-02-13T12:23:59;102441.16;;;7.19;83.52
31911;BME280;18457;52.432;16.914;2023-02-13T12:26:36;102442.83;;;7.22;82.96
31911;BME280;18457;52.432;16.914;2023-02-13T12:29:40;102444.30;;;7.23;82.82
31911;BME280;18457;52.432;16.914;2023-02-13T12:32:20;102442.24;;;7.20;82.42
31911;BME280;18457;52.432;16.914;2023-02-13T12:35:31;102429.61;;;7.26;82.69
31911;BME280;18457;52.432;16.914;2023-02-13T12:38:18;102429.49;;;7.28;82.35
31911;BME280;18457;52.432;16.914;2023-02-13T12:41:09;102424.29;;;7.29;82.19
31911;BME280;18457;52.432;16.914;2023-02-13T12:44:06;102423.44;;;7.22;81.96
31911;BME280;18457;52.432;16.914;2023-02-13T12:46:51;102418.89;;;7.19;82.42
31911;BME280;18457;52.432;16.914;2023-02-13T12:49:58;102419.87;;;7.16;82.44
31911;BME280;18457;52.432;16.914;2023-02-13T12:52:43;102414.60;;;7.13;82.21
31911;BME280;18457;52.432;16.914;2023-02-13T12:56:07;102402.92;;;7.13;82.31
31911;BME280;18457;52.432;16.914;2023-02-13T12:58:54;102399.80;;;7.10;82.07
31911;BME280;18457;52.432;16.914;2023-02-13T13:01:57;102404.60;;;7.08;82.09
31911;BME280;18457;52.432;16.914;2023-02-13T13:04:46;102394.57;;;7.10;81.77
31911;BME280;18457;52.432;16.914;2023-02-13T13:07:30;102396.95;;;7.12;81.81
31911;BME280;18457;52.432;16.914;2023-02-13T13:10:32;102386.36;;;7.12;81.66
31911;BME280;18457;52.432;16.914;2023-02-13T13:13:12;102393.88;;;7.11;81.67
31911;BME280;18457;52.432;16.914;2023-02-13T13:15:53;102392.30;;;7.12;81.59
31911;BME280;18457;52.432;16.914;2023-02-13T13:18:39;102386.77;;;7.15;81.03
31911;BME280;18457;52.432;16.914;2023-02-13T13:21:18;102384.18;;;7.12;80.89
31911;BME280;18457;52.432;16.914;2023-02-13T13:23:57;102388.45;;;7.09;80.96
31911;BME280;18457;52.432;16.914;2023-02-13T13:26:35;102383.54;;;7.15;81.04
31911;BME280;18457;52.432;16.914;2023-02-13T13:29:14;102374.52;;;7.13;81.03
31911;BME280;18457;52.432;16.914;2023-02-13T13:31:51;102374.30;;;7.12;81.08
31911;BME280;18457;52.432;16.914;2023-02-13T13:34:26;102368.20;;;7.11;81.01
31911;BME280;18457;52.432;16.914;2023-02-13T13:37:01;102352.61;;;7.14;81.02
31911;BME280;18457;52.432;16.914;2023-02-13T13:39:44;102347.80;;;7.08;80.84
31911;BME280;18457;52.432;16.914;2023-02-13T13:42:24;102329.77;;;7.13;81.08